sensor_id;sensor_type;location;lat;lon;timestamp;temperature;humidity
48836;DHT22;62581;47.342;7.908;2023-12-14T00:02:23;7.00;99.90
48836;DHT22;62581;47.342;7.908;2023-12-14T00:04:50;7.00;99.90
48836;DHT22;62581;47.342;7.908;2023-12-14T00:07:18;7.00;99.90
48836;DHT22;62581;47.342;7.908;2023-12-14T00:09:45;7.00;99.90
48836;DHT22;62581;47.342;7.908;2023-12-14T00:12:11;7.10;99.90
48836;DHT22;62581;47.342;7.908;2023-12-14T00:14:38;7.10;99.90
48836;DHT22;62581;47.342;7.908;2023-12-14T00:17:05;7.00;99.90
48836;DHT22;62581;47.342;7.908;2023-12-14T00:19:32;7.00;99.90
48836;DHT22;62581;47.342;7.908;2023-12-14T00:21:58;7.00;99.90
48836;DHT22;62581;47.342;7.908;2023-12-14T00:24:27;7.00;99.90
48836;DHT22;62581;47.342;7.908;2023-12-14T00:26:53;7.00;99.90
48836;DHT22;62581;47.342;7.908;2023-12-14T00:29:20;7.00;99.90
48836;DHT22;62581;47.342;7.908;2023-12-14T00:31:47;7.00;99.90
48836;DHT22;62581;47.342;7.908;2023-12-14T00:34:13;7.00;99.90
48836;DHT22;62581;47.342;7.908;2023-12-14T00:36:40;7.00;99.90
48836;DHT22;62581;47.342;7.908;2023-12-14T00:39:08;6.90;99.90
48836;DHT22;62581;47.342;7.908;2023-12-14T00:41:36;7.00;99.90
48836;DHT22;62581;47.342;7.908;2023-12-14T00:44:03;7.00;99.90
48836;DHT22;62581;47.342;7.908;2023-12-14T00:46:30;6.90;99.90
48836;DHT22;62581;47.342;7.908;2023-12-14T00:48:56;6.90;99.90
48836;DHT22;62581;47.342;7.908;2023-12-14T00:51:23;6.90;99.90
48836;DHT22;62581;47.342;7.908;2023-12-14T00:53:50;7.00;99.90
48836;DHT22;62581;47.342;7.908;2023-12-14T00:56:17;7.00;99.90
48836;DHT22;62581;47.342;7.908;2023-12-14T00:58:45;7.00;99.90
48836;DHT22;62581;47.342;7.908;2023-12-14T01:01:12;7.00;99.90
48836;DHT22;62581;47.342;7.908;2023-12-14T01:03:38;7.00;99.90
48836;DHT22;62581;47.342;7.908;2023-12-14T01:06:05;7.00;99.90
48836;DHT22;62581;47.342;7.908;2023-12-14T01:08:32;7.00;99.90
48836;DHT22;62581;47.342;7.908;2023-12-14T01:10:59;7.00;99.90
48836;DHT22;62581;47.342;7.908;2023-12-14T01:13:26;7.00;99.90
48836;DHT22;62581;47.342;7.908;2023-12-14T01:15:54;7.00;99.90
48836;DHT22;62581;47.342;7.908;2023-12-14T01:18:20;7.00;99.90
48836;DHT22;62581;47.342;7.908;2023-12-14T01:20:47;7.00;99.90
48836;DHT22;62581;47.342;7.908;2023-12-14T01:23:14;7.00;99.90
48836;DHT22;62581;47.342;7.908;2023-12-14T01:25:41;7.00;99.90
48836;DHT22;62581;47.342;7.908;2023-12-14T01:28:08;7.00;99.90
48836;DHT22;62581;47.342;7.908;2023-12-14T01:30:35;7.00;99.90
48836;DHT22;62581;47.342;7.908;2023-12-14T01:33:03;6.90;99.90
48836;DHT22;62581;47.342;7.908;2023-12-14T01:35:30;6.80;99.90
48836;DHT22;62581;47.342;7.908;2023-12-14T01:37:57;6.80;99.90
48836;DHT22;62581;47.342;7.908;2023-12-14T01:40:24;6.90;99.90
48836;DHT22;62581;47.342;7.908;2023-12-14T01:42:50;6.90;99.90
48836;DHT22;62581;47.342;7.908;2023-12-14T01:45:17;6.90;99.90
48836;DHT22;62581;47.342;7.908;2023-12-14T01:47:45;7.00;99.90
48836;DHT22;62581;47.342;7.908;2023-12-14T01:50:13;7.00;99.90
48836;DHT22;62581;47.342;7.908;2023-12-14T01:52:40;7.00;99.90
48836;DHT22;62581;47.342;7.908;2023-12-14T01:55:07;7.00;99.90
48836;DHT22;62581;47.342;7.908;2023-12-14T01:57:34;7.00;99.90
48836;DHT22;62581;47.342;7.908;2023-12-14T02:00:00;7.00;99.90
48836;DHT22;62581;47.342;7.908;2023-12-14T02:02:27;7.00;99.90
48836;DHT22;62581;47.342;7.908;2023-12-14T02:04:54;7.00;99.90
48836;DHT22;62581;47.342;7.908;2023-12-14T02:07:22;7.00;99.90
48836;DHT22;62581;47.342;7.908;2023-12-14T02:09:49;7.00;99.90
48836;DHT22;62581;47.342;7.908;2023-12-14T02:12:16;7.10;99.90
48836;DHT22;62581;47.342;7.908;2023-12-14T02:14:43;7.10;99.90
48836;DHT22;62581;47.342;7.908;2023-12-14T02:17:09;7.00;99.90
48836;DHT22;62581;47.342;7.908;2023-12-14T02:19:36;7.00;99.90
48836;DHT22;62581;47.342;7.908;2023-12-14T02:22:03;7.00;99.90
48836;DHT22;62581;47.342;7.908;2023-12-14T02:24:31;7.00;99.90
48836;DHT22;62581;47.342;7.908;2023-12-14T02:26:58;7.00;99.90
48836;DHT22;62581;47.342;7.908;2023-12-14T02:29:25;7.00;99.90
48836;DHT22;62581;47.342;7.908;2023-12-14T02:31:51;7.00;99.90
48836;DHT22;62581;47.342;7.908;2023-12-14T02:34:18;7.00;99.90
48836;DHT22;62581;47.342;7.908;2023-12-14T02:36:46;7.00;99.90
48836;DHT22;62581;47.342;7.908;2023-12-14T02:39:12;6.90;99.90
48836;DHT22;62581;47.342;7.908;2023-12-14T02:41:41;6.90;99.90
48836;DHT22;62581;47.342;7.908;2023-12-14T02:44:07;6.90;99.90
48836;DHT22;62581;47.342;7.908;2023-12-14T02:46:34;6.90;99.90
48836;DHT22;62581;47.342;7.908;2023-12-14T02:49:01;6.90;99.90
48836;DHT22;62581;47.342;7.908;2023-12-14T02:51:27;7.00;99.90
48836;DHT22;62581;47.342;7.908;2023-12-14T02:53:54;7.00;99.90
48836;DHT22;62581;47.342;7.908;2023-12-14T02:56:22;7.00;99.90
48836;DHT22;62581;47.342;7.908;2023-12-14T02:58:50;7.00;99.90
48836;DHT22;62581;47.342;7.908;2023-12-14T03:01:19;6.90;99.90
48836;DHT22;62581;47.342;7.908;2023-12-14T03:03:46;6.80;99.90
48836;DHT22;62581;47.342;7.908;2023-12-14T03:06:13;6.80;99.90
48836;DHT22;62581;47.342;7.908;2023-12-14T03:08:40;6.80;99.90
48836;DHT22;62581;47.342;7.908;2023-12-14T03:11:06;6.80;99.90
48836;DHT22;62581;47.342;7.908;2023-12-14T03:13:33;6.80;99.90
48836;DHT22;62581;47.342;7.908;2023-12-14T03:16:02;6.80;99.90
48836;DHT22;62581;47.342;7.908;2023-12-14T03:18:28;6.80;99.90
48836;DHT22;62581;47.342;7.908;2023-12-14T03:20:55;6.80;99.90
48836;DHT22;62581;47.342;7.908;2023-12-14T03:23:22;6.80;99.90
48836;DHT22;62581;47.342;7.908;2023-12-14T03:25:49;6.80;99.90
48836;DHT22;62581;47.342;7.908;2023-12-14T03:28:14;6.80;99.90
48836;DHT22;62581;47.342;7.908;2023-12-14T03:30:42;6.80;99.90
48836;DHT22;62581;47.342;7.908;2023-12-14T03:33:10;6.80;99.90
48836;DHT22;62581;47.342;7.908;2023-12-14T03:35:37;6.80;99.90
48836;DHT22;62581;47.342;7.908;2023-12-14T03:38:07;6.80;99.90
48836;DHT22;62581;47.342;7.908;2023-12-14T03:40:34;6.80;99.90
48836;DHT22;62581;47.342;7.908;2023-12-14T03:43:01;6.90;99.90
48836;DHT22;62581;47.342;7.908;2023-12-14T03:45:28;6.90;99.90
48836;DHT22;62581;47.342;7.908;2023-12-14T03:47:55;6.90;99.90
48836;DHT22;62581;47.342;7.908;2023-12-14T03:50:23;6.90;99.90
48836;DHT22;62581;47.342;7.908;2023-12-14T03:52:50;6.90;99.90
48836;DHT22;62581;47.342;7.908;2023-12-14T03:55:16;6.80;99.90
48836;DHT22;62581;47.342;7.908;2023-12-14T03:57:43;6.80;99.90
48836;DHT22;62581;47.342;7.908;2023-12-14T04:00:10;6.80;99.90
48836;DHT22;62581;47.342;7.908;2023-12-14T04:02:38;6.80;99.90
48836;DHT22;62581;47.342;7.908;2023-12-14T04:05:05;6.80;99.90
48836;DHT22;62581;47.342;7.908;2023-12-14T04:07:34;6.90;99.90
48836;DHT22;62581;47.342;7.908;2023-12-14T04:10:01;6.90;99.90
48836;DHT22;62581;47.342;7.908;2023-12-14T04:12:28;6.90;99.90
48836;DHT22;62581;47.342;7.908;2023-12-14T04:14:54;6.90;99.90
48836;DHT22;62581;47.342;7.908;2023-12-14T04:17:21;6.90;99.90
48836;DHT22;62581;47.342;7.908;2023-12-14T04:19:48;6.80;99.90
48836;DHT22;62581;47.342;7.908;2023-12-14T04:22:15;6.90;99.90
48836;DHT22;62581;47.342;7.908;2023-12-14T04:24:43;6.90;99.90
48836;DHT22;62581;47.342;7.908;2023-12-14T04:27:10;6.90;99.90
48836;DHT22;62581;47.342;7.908;2023-12-14T04:29:36;6.80;99.90
48836;DHT22;62581;47.342;7.908;2023-12-14T04:32:04;6.80;99.90
48836;DHT22;62581;47.342;7.908;2023-12-14T04:34:30;6.80;99.90
48836;DHT22;62581;47.342;7.908;2023-12-14T04:36:57;6.80;99.90
48836;DHT22;62581;47.342;7.908;2023-12-14T04:39:24;6.80;99.90
48836;DHT22;62581;47.342;7.908;2023-12-14T04:41:52;6.70;99.90
48836;DHT22;62581;47.342;7.908;2023-12-14T04:44:19;6.80;99.90
48836;DHT22;62581;47.342;7.908;2023-12-14T04:46:46;6.80;99.90
48836;DHT22;62581;47.342;7.908;2023-12-14T04:49:13;6.80;99.90
48836;DHT22;62581;47.342;7.908;2023-12-14T04:51:40;6.80;99.90
48836;DHT22;62581;47.342;7.908;2023-12-14T04:54:08;6.80;99.90
48836;DHT22;62581;47.342;7.908;2023-12-14T04:56:34;6.80;99.90
48836;DHT22;62581;47.342;7.908;2023-12-14T04:59:02;6.80;99.90
48836;DHT22;62581;47.342;7.908;2023-12-14T05:01:29;6.90;99.90
48836;DHT22;62581;47.342;7.908;2023-12-14T05:03:56;6.90;99.90
48836;DHT22;62581;47.342;7.908;2023-12-14T05:06:23;6.90;99.90
48836;DHT22;62581;47.342;7.908;2023-12-14T05:08:49;6.90;99.90
48836;DHT22;62581;47.342;7.908;2023-12-14T05:11:16;7.00;99.90
48836;DHT22;62581;47.342;7.908;2023-12-14T05:13:43;6.90;99.90
48836;DHT22;62581;47.342;7.908;2023-12-14T05:16:13;6.90;99.90
48836;DHT22;62581;47.342;7.908;2023-12-14T05:18:40;6.90;99.90
48836;DHT22;62581;47.342;7.908;2023-12-14T05:21:07;7.00;99.90
48836;DHT22;62581;47.342;7.908;2023-12-14T05:23:34;7.00;99.90
48836;DHT22;62581;47.342;7.908;2023-12-14T05:26:00;7.00;99.90
48836;DHT22;62581;47.342;7.908;2023-12-14T05:28:27;7.10;99.90
48836;DHT22;62581;47.342;7.908;2023-12-14T05:30:54;7.10;99.90
48836;DHT22;62581;47.342;7.908;2023-12-14T05:33:22;7.10;99.90
48836;DHT22;62581;47.342;7.908;2023-12-14T05:35:49;7.10;99.90
48836;DHT22;62581;47.342;7.908;2023-12-14T05:38:15;7.10;99.90
48836;DHT22;62581;47.342;7.908;2023-12-14T05:40:42;7.10;99.90
48836;DHT22;62581;47.342;7.908;2023-12-14T05:43:09;7.20;99.90
48836;DHT22;62581;47.342;7.908;2023-12-14T05:45:36;7.10;99.90
48836;DHT22;62581;47.342;7.908;2023-12-14T05:48:03;7.10;99.90
48836;DHT22;62581;47.342;7.908;2023-12-14T05:50:32;7.10;99.90
48836;DHT22;62581;47.342;7.908;2023-12-14T05:52:58;7.10;99.90
48836;DHT22;62581;47.342;7.908;2023-12-14T05:55:25;7.10;99.90
48836;DHT22;62581;47.342;7.908;2023-12-14T05:57:52;7.00;99.90
48836;DHT22;62581;47.342;7.908;2023-12-14T06:00:20;7.10;99.90
48836;DHT22;62581;47.342;7.908;2023-12-14T06:02:47;7.10;99.90
48836;DHT22;62581;47.342;7.908;2023-12-14T06:05:13;7.10;99.90
48836;DHT22;62581;47.342;7.908;2023-12-14T06:07:41;7.10;99.90
48836;DHT22;62581;47.342;7.908;2023-12-14T06:10:09;7.10;99.90
48836;DHT22;62581;47.342;7.908;2023-12-14T06:12:36;7.10;99.90
48836;DHT22;62581;47.342;7.908;2023-12-14T06:15:03;7.10;99.90
48836;DHT22;62581;47.342;7.908;2023-12-14T06:17:30;7.10;99.90
48836;DHT22;62581;47.342;7.908;2023-12-14T06:19:57;7.20;99.90
48836;DHT22;62581;47.342;7.908;2023-12-14T06:22:24;7.10;99.90
48836;DHT22;62581;47.342;7.908;2023-12-14T06:24:52;7.10;99.90
48836;DHT22;62581;47.342;7.908;2023-12-14T06:27:19;7.10;99.90
48836;DHT22;62581;47.342;7.908;2023-12-14T06:29:48;7.10;99.90
48836;DHT22;62581;47.342;7.908;2023-12-14T06:32:15;7.10;99.90
48836;DHT22;62581;47.342;7.908;2023-12-14T06:34:41;7.10;99.90
48836;DHT22;62581;47.342;7.908;2023-12-14T06:37:08;7.10;99.90
48836;DHT22;62581;47.342;7.908;2023-12-14T06:39:36;7.00;99.90
48836;DHT22;62581;47.342;7.908;2023-12-14T06:42:04;7.00;99.90
48836;DHT22;62581;47.342;7.908;2023-12-14T06:44:31;7.00;99.90
48836;DHT22;62581;47.342;7.908;2023-12-14T06:46:57;7.10;99.90
48836;DHT22;62581;47.342;7.908;2023-12-14T06:49:24;7.10;99.90
48836;DHT22;62581;47.342;7.908;2023-12-14T06:51:51;7.00;99.90
48836;DHT22;62581;47.342;7.908;2023-12-14T06:54:18;7.00;99.90
48836;DHT22;62581;47.342;7.908;2023-12-14T06:56:45;7.00;99.90
48836;DHT22;62581;47.342;7.908;2023-12-14T06:59:13;7.10;99.90
48836;DHT22;62581;47.342;7.908;2023-12-14T07:01:39;7.10;99.90
48836;DHT22;62581;47.342;7.908;2023-12-14T07:04:09;7.00;99.90
48836;DHT22;62581;47.342;7.908;2023-12-14T07:06:35;7.10;99.90
48836;DHT22;62581;47.342;7.908;2023-12-14T07:09:02;7.10;99.90
48836;DHT22;62581;47.342;7.908;2023-12-14T07:11:32;7.10;99.90
48836;DHT22;62581;47.342;7.908;2023-12-14T07:13:58;7.10;99.90
48836;DHT22;62581;47.342;7.908;2023-12-14T07:16:26;7.10;99.90
48836;DHT22;62581;47.342;7.908;2023-12-14T07:18:53;7.10;99.90
48836;DHT22;62581;47.342;7.908;2023-12-14T07:21:20;7.10;99.90
48836;DHT22;62581;47.342;7.908;2023-12-14T07:23:47;7.10;99.90
48836;DHT22;62581;47.342;7.908;2023-12-14T07:26:14;7.10;99.90
48836;DHT22;62581;47.342;7.908;2023-12-14T07:28:41;7.20;99.90
48836;DHT22;62581;47.342;7.908;2023-12-14T07:31:07;7.20;99.90
48836;DHT22;62581;47.342;7.908;2023-12-14T07:33:35;7.10;99.90
48836;DHT22;62581;47.342;7.908;2023-12-14T07:36:02;7.10;99.90
48836;DHT22;62581;47.342;7.908;2023-12-14T07:38:30;7.20;99.90
48836;DHT22;62581;47.342;7.908;2023-12-14T07:40:57;7.20;99.90
48836;DHT22;62581;47.342;7.908;2023-12-14T07:43:24;7.20;99.90
48836;DHT22;62581;47.342;7.908;2023-12-14T07:45:50;7.20;99.90
48836;DHT22;62581;47.342;7.908;2023-12-14T07:48:17;7.30;99.90
48836;DHT22;62581;47.342;7.908;2023-12-14T07:50:45;7.30;99.90
48836;DHT22;62581;47.342;7.908;2023-12-14T07:53:13;7.40;99.90
48836;DHT22;62581;47.342;7.908;2023-12-14T07:55:40;7.40;99.90
48836;DHT22;62581;47.342;7.908;2023-12-14T07:58:07;7.30;99.90
48836;DHT22;62581;47.342;7.908;2023-12-14T08:00:33;7.30;99.90
48836;DHT22;62581;47.342;7.908;2023-12-14T08:03:00;7.30;99.90
48836;DHT22;62581;47.342;7.908;2023-12-14T08:05:27;7.40;99.90
48836;DHT22;62581;47.342;7.908;2023-12-14T08:07:55;7.40;99.90
48836;DHT22;62581;47.342;7.908;2023-12-14T08:10:22;7.40;99.90
48836;DHT22;62581;47.342;7.908;2023-12-14T08:12:48;7.50;99.90
48836;DHT22;62581;47.342;7.908;2023-12-14T08:15:16;7.50;99.90
48836;DHT22;62581;47.342;7.908;2023-12-14T08:17:43;7.50;99.90
48836;DHT22;62581;47.342;7.908;2023-12-14T08:20:10;7.50;99.90
48836;DHT22;62581;47.342;7.908;2023-12-14T08:22:38;7.50;99.90
48836;DHT22;62581;47.342;7.908;2023-12-14T08:25:12;7.50;99.90
48836;DHT22;62581;47.342;7.908;2023-12-14T08:27:39;7.50;99.90
48836;DHT22;62581;47.342;7.908;2023-12-14T08:30:06;7.50;99.90
48836;DHT22;62581;47.342;7.908;2023-12-14T08:32:33;7.50;99.90
48836;DHT22;62581;47.342;7.908;2023-12-14T08:35:00;7.50;99.90
48836;DHT22;62581;47.342;7.908;2023-12-14T08:37:27;7.60;99.90
48836;DHT22;62581;47.342;7.908;2023-12-14T08:39:53;7.60;99.90
48836;DHT22;62581;47.342;7.908;2023-12-14T08:42:22;7.70;99.90
48836;DHT22;62581;47.342;7.908;2023-12-14T08:44:49;7.70;99.90
48836;DHT22;62581;47.342;7.908;2023-12-14T08:47:15;7.70;99.90
48836;DHT22;62581;47.342;7.908;2023-12-14T08:49:42;7.70;99.90
48836;DHT22;62581;47.342;7.908;2023-12-14T08:52:09;7.80;99.90
48836;DHT22;62581;47.342;7.908;2023-12-14T08:54:36;7.80;99.90
48836;DHT22;62581;47.342;7.908;2023-12-14T08:57:03;7.90;99.90
48836;DHT22;62581;47.342;7.908;2023-12-14T08:59:32;7.80;99.90
48836;DHT22;62581;47.342;7.908;2023-12-14T09:01:58;7.90;99.90
48836;DHT22;62581;47.342;7.908;2023-12-14T09:04:25;7.90;99.90
48836;DHT22;62581;47.342;7.908;2023-12-14T09:07:01;7.90;99.90
48836;DHT22;62581;47.342;7.908;2023-12-14T09:09:29;7.90;99.90
48836;DHT22;62581;47.342;7.908;2023-12-14T09:11:56;7.90;99.90
48836;DHT22;62581;47.342;7.908;2023-12-14T09:14:22;7.90;99.90
48836;DHT22;62581;47.342;7.908;2023-12-14T09:16:50;7.80;99.90
48836;DHT22;62581;47.342;7.908;2023-12-14T09:19:17;7.80;99.90
48836;DHT22;62581;47.342;7.908;2023-12-14T09:21:44;7.80;99.90
48836;DHT22;62581;47.342;7.908;2023-12-14T09:24:11;7.80;99.90
48836;DHT22;62581;47.342;7.908;2023-12-14T09:26:38;7.80;99.90
48836;DHT22;62581;47.342;7.908;2023-12-14T09:29:05;7.90;99.90
48836;DHT22;62581;47.342;7.908;2023-12-14T09:31:32;7.80;99.90
48836;DHT22;62581;47.342;7.908;2023-12-14T09:34:00;7.90;99.90
48836;DHT22;62581;47.342;7.908;2023-12-14T09:36:28;8.00;99.90
48836;DHT22;62581;47.342;7.908;2023-12-14T09:38:55;8.00;99.90
48836;DHT22;62581;47.342;7.908;2023-12-14T09:41:21;7.90;99.90
48836;DHT22;62581;47.342;7.908;2023-12-14T09:43:48;8.00;99.90
48836;DHT22;62581;47.342;7.908;2023-12-14T09:46:15;8.10;99.90
48836;DHT22;62581;47.342;7.908;2023-12-14T09:48:43;8.20;99.90
48836;DHT22;62581;47.342;7.908;2023-12-14T09:51:12;8.30;99.90
48836;DHT22;62581;47.342;7.908;2023-12-14T09:53:39;8.50;99.90
48836;DHT22;62581;47.342;7.908;2023-12-14T09:56:05;8.60;99.90
48836;DHT22;62581;47.342;7.908;2023-12-14T09:58:32;8.70;99.90
48836;DHT22;62581;47.342;7.908;2023-12-14T10:00:59;8.70;99.90
48836;DHT22;62581;47.342;7.908;2023-12-14T10:03:29;8.80;99.90
48836;DHT22;62581;47.342;7.908;2023-12-14T10:05:58;8.90;99.90
48836;DHT22;62581;47.342;7.908;2023-12-14T10:08:28;9.00;99.90
48836;DHT22;62581;47.342;7.908;2023-12-14T10:10:55;9.00;99.90
48836;DHT22;62581;47.342;7.908;2023-12-14T10:13:22;9.00;99.90
48836;DHT22;62581;47.342;7.908;2023-12-14T10:15:50;9.00;99.90
48836;DHT22;62581;47.342;7.908;2023-12-14T10:18:21;8.90;99.90
48836;DHT22;62581;47.342;7.908;2023-12-14T10:20:48;8.90;99.90
48836;DHT22;62581;47.342;7.908;2023-12-14T10:23:15;8.80;99.90
48836;DHT22;62581;47.342;7.908;2023-12-14T10:25:43;8.80;99.90
48836;DHT22;62581;47.342;7.908;2023-12-14T10:28:11;8.70;99.90
48836;DHT22;62581;47.342;7.908;2023-12-14T10:30:38;8.70;99.90
48836;DHT22;62581;47.342;7.908;2023-12-14T10:33:05;8.70;99.90
48836;DHT22;62581;47.342;7.908;2023-12-14T10:35:32;8.70;99.90
48836;DHT22;62581;47.342;7.908;2023-12-14T10:38:04;8.60;99.90
48836;DHT22;62581;47.342;7.908;2023-12-14T10:40:31;8.60;99.90
48836;DHT22;62581;47.342;7.908;2023-12-14T10:42:59;8.50;99.90
48836;DHT22;62581;47.342;7.908;2023-12-14T10:45:27;8.50;99.90
48836;DHT22;62581;47.342;7.908;2023-12-14T10:47:55;8.50;99.90
48836;DHT22;62581;47.342;7.908;2023-12-14T10:50:23;8.40;99.90
48836;DHT22;62581;47.342;7.908;2023-12-14T10:52:50;8.50;99.90
48836;DHT22;62581;47.342;7.908;2023-12-14T10:55:19;8.50;99.90
48836;DHT22;62581;47.342;7.908;2023-12-14T10:57:46;8.60;99.90
48836;DHT22;62581;47.342;7.908;2023-12-14T11:00:15;8.60;99.90
48836;DHT22;62581;47.342;7.908;2023-12-14T11:02:44;8.70;99.90
48836;DHT22;62581;47.342;7.908;2023-12-14T11:05:12;8.70;99.90
48836;DHT22;62581;47.342;7.908;2023-12-14T11:07:49;8.70;99.90
48836;DHT22;62581;47.342;7.908;2023-12-14T11:10:21;8.80;99.90
48836;DHT22;62581;47.342;7.908;2023-12-14T11:12:51;8.70;99.90
48836;DHT22;62581;47.342;7.908;2023-12-14T11:15:19;8.70;99.90
48836;DHT22;62581;47.342;7.908;2023-12-14T11:20:39;8.60;99.90
48836;DHT22;62581;47.342;7.908;2023-12-14T11:23:13;8.60;99.90
48836;DHT22;62581;47.342;7.908;2023-12-14T11:25:40;8.70;99.90
48836;DHT22;62581;47.342;7.908;2023-12-14T11:28:07;8.70;99.90
48836;DHT22;62581;47.342;7.908;2023-12-14T11:30:36;8.80;99.90
48836;DHT22;62581;47.342;7.908;2023-12-14T11:33:03;8.80;99.90
48836;DHT22;62581;47.342;7.908;2023-12-14T11:35:30;8.80;99.90
48836;DHT22;62581;47.342;7.908;2023-12-14T11:37:56;8.90;99.90
48836;DHT22;62581;47.342;7.908;2023-12-14T11:40:25;8.90;99.90
48836;DHT22;62581;47.342;7.908;2023-12-14T11:42:57;8.90;99.90
48836;DHT22;62581;47.342;7.908;2023-12-14T11:45:24;8.90;99.90
48836;DHT22;62581;47.342;7.908;2023-12-14T11:47:52;9.00;99.90
48836;DHT22;62581;47.342;7.908;2023-12-14T11:50:19;9.00;99.90
48836;DHT22;62581;47.342;7.908;2023-12-14T11:52:46;9.00;99.90
48836;DHT22;62581;47.342;7.908;2023-12-14T11:55:13;9.10;99.90
48836;DHT22;62581;47.342;7.908;2023-12-14T11:57:45;9.10;99.90
48836;DHT22;62581;47.342;7.908;2023-12-14T12:00:12;9.00;99.90
48836;DHT22;62581;47.342;7.908;2023-12-14T12:02:39;9.10;99.90
48836;DHT22;62581;47.342;7.908;2023-12-14T12:05:08;9.00;99.90
48836;DHT22;62581;47.342;7.908;2023-12-14T12:07:38;9.10;99.90
48836;DHT22;62581;47.342;7.908;2023-12-14T12:10:09;9.00;99.90
48836;DHT22;62581;47.342;7.908;2023-12-14T12:12:36;9.00;99.90
48836;DHT22;62581;47.342;7.908;2023-12-14T12:15:03;8.90;99.90
48836;DHT22;62581;47.342;7.908;2023-12-14T12:17:30;8.90;99.90
48836;DHT22;62581;47.342;7.908;2023-12-14T12:19:59;9.00;99.90
48836;DHT22;62581;47.342;7.908;2023-12-14T12:22:27;9.00;99.90
48836;DHT22;62581;47.342;7.908;2023-12-14T12:24:54;9.00;99.90
48836;DHT22;62581;47.342;7.908;2023-12-14T12:27:20;9.00;99.90
48836;DHT22;62581;47.342;7.908;2023-12-14T12:29:47;9.00;99.90
48836;DHT22;62581;47.342;7.908;2023-12-14T12:32:15;9.00;99.90
48836;DHT22;62581;47.342;7.908;2023-12-14T12:34:41;8.90;99.90
48836;DHT22;62581;47.342;7.908;2023-12-14T12:37:08;8.90;99.90
48836;DHT22;62581;47.342;7.908;2023-12-14T12:39:36;8.90;99.90
48836;DHT22;62581;47.342;7.908;2023-12-14T12:42:04;8.90;99.90
48836;DHT22;62581;47.342;7.908;2023-12-14T12:44:31;8.90;99.90
48836;DHT22;62581;47.342;7.908;2023-12-14T12:46:58;8.90;99.90
48836;DHT22;62581;47.342;7.908;2023-12-14T12:49:24;9.00;99.90
48836;DHT22;62581;47.342;7.908;2023-12-14T12:51:51;9.00;99.90
48836;DHT22;62581;47.342;7.908;2023-12-14T12:54:18;9.00;99.90
48836;DHT22;62581;47.342;7.908;2023-12-14T12:56:46;9.00;99.90
48836;DHT22;62581;47.342;7.908;2023-12-14T12:59:13;9.10;99.90
48836;DHT22;62581;47.342;7.908;2023-12-14T13:01:40;9.10;99.90
48836;DHT22;62581;47.342;7.908;2023-12-14T13:04:17;9.00;99.90
48836;DHT22;62581;47.342;7.908;2023-12-14T13:06:44;9.00;99.90
48836;DHT22;62581;47.342;7.908;2023-12-14T13:09:11;9.10;99.90
48836;DHT22;62581;47.342;7.908;2023-12-14T13:11:41;9.10;99.90
48836;DHT22;62581;47.342;7.908;2023-12-14T13:14:09;9.00;99.90
48836;DHT22;62581;47.342;7.908;2023-12-14T13:16:36;9.00;99.90
48836;DHT22;62581;47.342;7.908;2023-12-14T13:19:03;9.10;99.90
48836;DHT22;62581;47.342;7.908;2023-12-14T13:21:31;9.00;99.90
48836;DHT22;62581;47.342;7.908;2023-12-14T13:23:59;9.00;99.90
48836;DHT22;62581;47.342;7.908;2023-12-14T13:26:25;9.00;99.90
48836;DHT22;62581;47.342;7.908;2023-12-14T13:28:52;8.90;99.90
48836;DHT22;62581;47.342;7.908;2023-12-14T13:31:21;8.90;99.90
48836;DHT22;62581;47.342;7.908;2023-12-14T13:33:48;8.90;99.90
48836;DHT22;62581;47.342;7.908;2023-12-14T13:36:15;8.90;99.90
48836;DHT22;62581;47.342;7.908;2023-12-14T13:38:44;8.90;99.90
48836;DHT22;62581;47.342;7.908;2023-12-14T13:41:10;8.90;99.90
48836;DHT22;62581;47.342;7.908;2023-12-14T13:43:37;8.90;99.90
48836;DHT22;62581;47.342;7.908;2023-12-14T13:46:04;8.90;99.90
48836;DHT22;62581;47.342;7.908;2023-12-14T13:48:33;8.90;99.90
48836;DHT22;62581;47.342;7.908;2023-12-14T13:50:59;8.80;99.90
48836;DHT22;62581;47.342;7.908;2023-12-14T13:53:26;8.90;99.90
48836;DHT22;62581;47.342;7.908;2023-12-14T13:55:53;8.90;99.90
48836;DHT22;62581;47.342;7.908;2023-12-14T13:58:20;8.90;99.90
48836;DHT22;62581;47.342;7.908;2023-12-14T14:00:47;8.90;99.90
48836;DHT22;62581;47.342;7.908;2023-12-14T14:03:13;8.90;99.90
48836;DHT22;62581;47.342;7.908;2023-12-14T14:05:42;8.90;99.90
48836;DHT22;62581;47.342;7.908;2023-12-14T14:08:09;9.00;99.90
48836;DHT22;62581;47.342;7.908;2023-12-14T14:10:36;8.90;99.90
48836;DHT22;62581;47.342;7.908;2023-12-14T14:13:03;9.00;99.90
48836;DHT22;62581;47.342;7.908;2023-12-14T14:15:30;9.00;99.90
48836;DHT22;62581;47.342;7.908;2023-12-14T14:17:56;8.90;99.90
48836;DHT22;62581;47.342;7.908;2023-12-14T14:20:23;8.90;99.90
48836;DHT22;62581;47.342;7.908;2023-12-14T14:22:51;8.90;99.90
48836;DHT22;62581;47.342;7.908;2023-12-14T14:25:18;8.80;99.90
48836;DHT22;62581;47.342;7.908;2023-12-14T14:27:45;8.70;99.90
48836;DHT22;62581;47.342;7.908;2023-12-14T14:30:13;8.70;99.90
48836;DHT22;62581;47.342;7.908;2023-12-14T14:32:41;8.70;99.90
48836;DHT22;62581;47.342;7.908;2023-12-14T14:35:08;8.70;99.90
48836;DHT22;62581;47.342;7.908;2023-12-14T14:37:34;8.70;99.90
48836;DHT22;62581;47.342;7.908;2023-12-14T14:40:03;8.70;99.90
48836;DHT22;62581;47.342;7.908;2023-12-14T14:42:30;8.60;99.90
48836;DHT22;62581;47.342;7.908;2023-12-14T14:44:57;8.60;99.90
48836;DHT22;62581;47.342;7.908;2023-12-14T14:47:24;8.60;99.90
48836;DHT22;62581;47.342;7.908;2023-12-14T14:49:51;8.60;99.90
48836;DHT22;62581;47.342;7.908;2023-12-14T14:52:22;8.60;99.90
48836;DHT22;62581;47.342;7.908;2023-12-14T14:54:48;8.60;99.90
48836;DHT22;62581;47.342;7.908;2023-12-14T14:57:16;8.60;99.90
48836;DHT22;62581;47.342;7.908;2023-12-14T14:59:44;8.60;99.90
48836;DHT22;62581;47.342;7.908;2023-12-14T15:02:10;8.50;99.90
48836;DHT22;62581;47.342;7.908;2023-12-14T15:04:37;8.50;99.90
48836;DHT22;62581;47.342;7.908;2023-12-14T15:07:04;8.50;99.90
48836;DHT22;62581;47.342;7.908;2023-12-14T15:09:30;8.50;99.90
48836;DHT22;62581;47.342;7.908;2023-12-14T15:11:57;8.50;99.90
48836;DHT22;62581;47.342;7.908;2023-12-14T15:14:25;8.50;99.90
48836;DHT22;62581;47.342;7.908;2023-12-14T15:16:53;8.50;99.90
48836;DHT22;62581;47.342;7.908;2023-12-14T15:19:20;8.50;99.90
48836;DHT22;62581;47.342;7.908;2023-12-14T15:21:47;8.50;99.90
48836;DHT22;62581;47.342;7.908;2023-12-14T15:24:13;8.40;99.90
48836;DHT22;62581;47.342;7.908;2023-12-14T15:26:40;8.40;99.90
48836;DHT22;62581;47.342;7.908;2023-12-14T15:29:07;8.40;99.90
48836;DHT22;62581;47.342;7.908;2023-12-14T15:31:35;8.40;99.90
48836;DHT22;62581;47.342;7.908;2023-12-14T15:34:02;8.40;99.90
48836;DHT22;62581;47.342;7.908;2023-12-14T15:36:32;8.30;99.90
48836;DHT22;62581;47.342;7.908;2023-12-14T15:38:59;8.40;99.90
48836;DHT22;62581;47.342;7.908;2023-12-14T15:41:26;8.40;99.90
48836;DHT22;62581;47.342;7.908;2023-12-14T15:43:52;8.30;99.90
48836;DHT22;62581;47.342;7.908;2023-12-14T15:46:19;8.30;99.90
48836;DHT22;62581;47.342;7.908;2023-12-14T15:48:48;8.30;99.90